createdAt,value
2022-10-24T00:01:39.136Z,99152.39
2022-10-24T00:04:08.409Z,99147.96
2022-10-24T00:06:36.091Z,99148.42
2022-10-24T00:09:03.974Z,99145.64
2022-10-24T00:11:31.754Z,99141.02
2022-10-24T00:14:00.479Z,99136.79
2022-10-24T00:16:28.700Z,99136.06
2022-10-24T00:18:56.388Z,99134.48
2022-10-24T00:21:24.226Z,99133.38
2022-10-24T00:23:52.727Z,99131.86
2022-10-24T00:26:21.059Z,99131.41
2022-10-24T00:28:48.926Z,99133.98
2022-10-24T00:31:19.460Z,99124.61
2022-10-24T00:33:47.481Z,99117.70
2022-10-24T00:36:19.716Z,99114.15
2022-10-24T00:38:49.737Z,99110.71
2022-10-24T00:41:33.512Z,99105.15
2022-10-24T00:44:22.367Z,99108.38
2022-10-24T00:46:53.543Z,99110.75
2022-10-24T00:49:44.045Z,99114.20
2022-10-24T00:52:15.417Z,99113.38
2022-10-24T00:54:43.963Z,99115.83
2022-10-24T00:57:38.733Z,99119.20
2022-10-24T01:00:15.820Z,99116.11
2022-10-24T01:02:44.744Z,99113.45
2022-10-24T01:05:15.093Z,99109.48
2022-10-24T01:07:53.886Z,99105.81
2022-10-24T01:10:49.964Z,99101.22
2022-10-24T01:13:26.221Z,99101.36
2022-10-24T01:16:05.737Z,99095.13
2022-10-24T01:18:43.596Z,99094.09
2022-10-24T01:21:29.502Z,99097.09
2022-10-24T01:24:21.577Z,99100.04
2022-10-24T01:27:31.022Z,99097.94
2022-10-24T01:30:05.446Z,99098.00
2022-10-24T01:32:42.388Z,99099.30
2022-10-24T01:35:46.745Z,99104.92
2022-10-24T01:38:37.423Z,99099.50
2022-10-24T01:41:10.639Z,99095.54
2022-10-24T01:43:45.300Z,99091.45
2022-10-24T01:46:21.209Z,99094.55
2022-10-24T01:48:57.223Z,99095.45
2022-10-24T01:51:30.669Z,99097.49
2022-10-24T01:53:59.534Z,99089.79
2022-10-24T01:56:28.367Z,99090.38
2022-10-24T01:59:42.529Z,99095.31
2022-10-24T02:02:19.603Z,99089.86
2022-10-24T02:05:08.131Z,99091.19
2022-10-24T02:07:41.261Z,99098.41
2022-10-24T02:10:16.329Z,99089.40
2022-10-24T02:12:49.423Z,99075.67
2022-10-24T02:15:32.066Z,99072.89
2022-10-24T02:18:01.762Z,99066.81
2022-10-24T02:20:37.720Z,99060.89
2022-10-24T02:23:25.907Z,99059.55
2022-10-24T02:25:58.838Z,99055.65
2022-10-24T02:28:34.398Z,99053.04
2022-10-24T02:31:13.287Z,99060.02
2022-10-24T02:33:44.851Z,99059.27
2022-10-24T02:36:17.866Z,99058.09
2022-10-24T02:38:49.207Z,99061.39
2022-10-24T02:41:27.034Z,99059.86
2022-10-24T02:43:58.031Z,99058.65
2022-10-24T02:46:27.157Z,99057.60
2022-10-24T02:49:00.343Z,99057.72
2022-10-24T02:51:32.570Z,99061.40
2022-10-24T02:54:02.092Z,99060.81
2022-10-24T02:56:31.760Z,99065.20
2022-10-24T02:58:59.670Z,99073.66
2022-10-24T03:01:27.532Z,99072.90
2022-10-24T03:03:56.042Z,99067.48
2022-10-24T03:06:24.893Z,99065.09
2022-10-24T03:08:52.551Z,99063.55
2022-10-24T03:11:20.208Z,99065.81
2022-10-24T03:13:47.934Z,99063.98
2022-10-24T03:16:16.418Z,99060.55
2022-10-24T03:18:44.759Z,99052.23
2022-10-24T03:21:12.418Z,99059.53
2022-10-24T03:23:40.113Z,99057.63
2022-10-24T03:26:09.604Z,99051.83
2022-10-24T03:28:38.231Z,99049.16
2022-10-24T03:31:07.840Z,99043.98
2022-10-24T03:33:35.519Z,99041.64
2022-10-24T03:36:06.101Z,99038.07
2022-10-24T03:38:33.768Z,99039.48
2022-10-24T03:41:02.210Z,99041.05
2022-10-24T03:43:29.896Z,99030.56
2022-10-24T03:45:57.570Z,99030.89
2022-10-24T03:48:26.566Z,99033.05
2022-10-24T03:50:54.523Z,99025.71
2022-10-24T03:53:22.465Z,99019.42
2022-10-24T03:55:50.333Z,99017.75
2022-10-24T03:58:19.088Z,99021.25
2022-10-24T04:00:46.834Z,99024.27
2022-10-24T04:03:14.523Z,99015.06
2022-10-24T04:05:42.316Z,99013.06
2022-10-24T04:08:10.121Z,99014.09
2022-10-24T04:10:40.380Z,99018.23
2022-10-24T04:13:08.081Z,99011.70
2022-10-24T04:15:35.919Z,99008.61
2022-10-24T04:18:03.758Z,99007.23
2022-10-24T04:20:31.616Z,99006.34
2022-10-24T04:23:01.201Z,99011.54
2022-10-24T04:25:33.007Z,99006.49
2022-10-24T04:28:00.697Z,99008.95
2022-10-24T04:30:30.225Z,99007.48
2022-10-24T04:32:58.041Z,99007.60
2022-10-24T04:35:27.269Z,99001.70
2022-10-24T04:37:54.960Z,98991.13
2022-10-24T04:40:22.696Z,98989.29
2022-10-24T04:42:50.679Z,98992.92
2022-10-24T04:45:19.573Z,98990.90
2022-10-24T04:47:47.679Z,98989.69
2022-10-24T04:50:16.385Z,98992.70
2022-10-24T04:52:44.037Z,98994.15
2022-10-24T04:55:11.825Z,98985.16
2022-10-24T04:57:39.540Z,98987.51
2022-10-24T05:00:08.428Z,98980.98
2022-10-24T05:02:36.287Z,98978.13
2022-10-24T05:05:05.589Z,98983.27
2022-10-24T05:07:33.325Z,98989.27
2022-10-24T05:10:01.881Z,98989.94
2022-10-24T05:12:29.596Z,98986.40
2022-10-24T05:14:58.149Z,98987.43
2022-10-24T05:17:26.868Z,98992.92
2022-10-24T05:19:54.683Z,98988.87
2022-10-24T05:22:22.697Z,98989.30
2022-10-24T05:24:51.424Z,98990.34
2022-10-24T05:27:24.905Z,98986.23
2022-10-24T05:29:53.997Z,98983.69
2022-10-24T05:32:24.399Z,98983.45
2022-10-24T05:34:52.498Z,98985.03
2022-10-24T05:37:20.270Z,98988.25
2022-10-24T05:39:48.008Z,98978.94
2022-10-24T05:42:17.149Z,98978.18
2022-10-24T05:44:44.971Z,98987.37
2022-10-24T05:47:13.079Z,98996.88
2022-10-24T05:49:40.856Z,99000.54
2022-10-24T05:52:08.756Z,98994.20
2022-10-24T05:54:48.725Z,98990.23
2022-10-24T05:57:26.835Z,98990.34
2022-10-24T05:59:54.478Z,98990.58
2022-10-24T06:02:23.966Z,98993.29
2022-10-24T06:04:55.083Z,98991.44
2022-10-24T06:07:27.716Z,98991.17
2022-10-24T06:09:55.552Z,98995.58
2022-10-24T06:12:23.333Z,98998.08
2022-10-24T06:14:51.012Z,99001.86
2022-10-24T06:17:18.768Z,99013.38
2022-10-24T06:19:46.511Z,99010.08
2022-10-24T06:22:14.178Z,99006.45
2022-10-24T06:24:43.387Z,99008.45
2022-10-24T06:27:11.217Z,99009.45
2022-10-24T06:29:41.303Z,99011.58
2022-10-24T06:32:09.089Z,99004.86
2022-10-24T06:34:36.796Z,98998.09
2022-10-24T06:37:04.799Z,98983.86
2022-10-24T06:39:32.577Z,98976.55
2022-10-24T06:42:02.210Z,98966.30
2022-10-24T06:44:29.894Z,98960.79
2022-10-24T06:46:57.581Z,98953.48
2022-10-24T06:49:26.670Z,98959.39
2022-10-24T06:51:54.410Z,98966.61
2022-10-24T06:54:24.128Z,98960.65
2022-10-24T06:56:54.967Z,98960.82
2022-10-24T06:59:22.673Z,98966.16
2022-10-24T07:01:50.581Z,98965.09
2022-10-24T07:04:19.913Z,98956.23
2022-10-24T07:06:47.608Z,98952.19
2022-10-24T07:09:15.683Z,98958.08
2022-10-24T07:11:46.173Z,98970.64
2022-10-24T07:14:13.950Z,98974.21
2022-10-24T07:16:41.680Z,98976.60
2022-10-24T07:19:10.626Z,98978.35
2022-10-24T07:21:39.750Z,98984.89
2022-10-24T07:24:07.840Z,98992.95
2022-10-24T07:26:35.669Z,99003.37
2022-10-24T07:29:06.414Z,99008.19
2022-10-24T07:31:36.775Z,99013.52
2022-10-24T07:34:09.523Z,99014.90
2022-10-24T07:36:42.863Z,99011.14
2022-10-24T07:39:13.530Z,98997.11
2022-10-24T07:41:42.274Z,98994.85
2022-10-24T07:44:12.820Z,98995.30
2022-10-24T07:46:43.325Z,98984.55
2022-10-24T07:49:12.258Z,98986.48
2022-10-24T07:51:42.788Z,98991.07
2022-10-24T07:54:10.697Z,98993.33
2022-10-24T07:56:38.466Z,99003.36
2022-10-24T07:59:09.619Z,99008.54
2022-10-24T08:01:42.586Z,99017.07
2022-10-24T08:04:13.770Z,99020.21
2022-10-24T08:06:44.016Z,99011.48
2022-10-24T08:09:11.776Z,99015.23
2022-10-24T08:11:41.259Z,99015.49
2022-10-24T08:14:09.007Z,99016.59
2022-10-24T08:16:39.485Z,99021.14
2022-10-24T08:19:07.207Z,99024.23
2022-10-24T08:21:36.353Z,99020.10
2022-10-24T08:24:04.265Z,99022.16
2022-10-24T08:26:33.154Z,99010.36
2022-10-24T08:29:01.849Z,98999.67
2022-10-24T08:31:29.570Z,98987.48
2022-10-24T08:33:57.326Z,98989.97
2022-10-24T08:36:31.478Z,98999.62
2022-10-24T08:39:01.236Z,98998.23
2022-10-24T08:41:41.087Z,98997.83
2022-10-24T08:44:31.057Z,98997.52
2022-10-24T08:47:11.027Z,98997.61
2022-10-24T08:49:50.304Z,98996.82
2022-10-24T08:52:36.226Z,98996.98
2022-10-24T08:55:25.118Z,98995.11
2022-10-24T08:58:03.148Z,98994.79
2022-10-24T09:00:39.935Z,99005.77
2022-10-24T09:03:54.516Z,99005.64
2022-10-24T09:06:26.805Z,99003.36
2022-10-24T09:09:04.405Z,99006.84
2022-10-24T09:12:01.380Z,99003.66
2022-10-24T09:14:36.313Z,99003.10
2022-10-24T09:17:44.312Z,99004.77
2022-10-24T09:20:25.801Z,98994.73
2022-10-24T09:22:57.281Z,98986.90
2022-10-24T09:25:32.501Z,98984.10
2022-10-24T09:28:06.431Z,98990.73
2022-10-24T09:30:37.693Z,98986.63
2022-10-24T09:33:23.265Z,98985.16
2022-10-24T09:35:54.495Z,98985.23
2022-10-24T09:38:34.220Z,98983.73
2022-10-24T09:41:19.023Z,98991.14
2022-10-24T09:44:02.205Z,98994.65
2022-10-24T09:46:42.871Z,98985.83
2022-10-24T09:49:14.237Z,98974.61
2022-10-24T09:51:49.215Z,98970.77
2022-10-24T09:54:29.016Z,98965.22
2022-10-24T09:57:12.543Z,98967.22
2022-10-24T09:59:48.639Z,98961.96
2022-10-24T10:02:37.759Z,98961.00
2022-10-24T10:05:07.586Z,98960.73
2022-10-24T10:07:48.446Z,98962.83
2022-10-24T10:10:18.882Z,98962.40
2022-10-24T10:12:56.999Z,98960.30
2022-10-24T10:15:31.304Z,98949.77
2022-10-24T10:18:23.692Z,98944.70
2022-10-24T10:21:24.600Z,98952.56
2022-10-24T10:23:56.406Z,98961.61
2022-10-24T10:26:42.893Z,98964.22
2022-10-24T10:29:19.343Z,98964.15
2022-10-24T10:31:58.345Z,98961.24
2022-10-24T10:34:48.269Z,98949.28
2022-10-24T10:37:48.439Z,98938.10
2022-10-24T10:40:21.517Z,98932.59
2022-10-24T10:43:18.496Z,98938.44
2022-10-24T10:46:12.370Z,98936.36
2022-10-24T10:48:48.607Z,98946.14
2022-10-24T10:51:35.846Z,98950.48
2022-10-24T10:54:45.054Z,98951.05
2022-10-24T10:57:18.479Z,98948.46
2022-10-24T11:00:01.500Z,98946.05
2022-10-24T11:02:52.956Z,98946.02
2022-10-24T11:05:49.694Z,98948.52
2022-10-24T11:08:25.399Z,98951.05
2022-10-24T11:11:14.796Z,98959.00
2022-10-24T11:14:04.481Z,98963.66
2022-10-24T11:16:36.364Z,98965.02
2022-10-24T11:19:22.090Z,98954.94
2022-10-24T11:21:51.259Z,98942.23
2022-10-24T11:24:23.549Z,98933.95
2022-10-24T11:27:09.821Z,98944.08
2022-10-24T11:29:47.385Z,98951.83
2022-10-24T11:32:21.007Z,98955.02
2022-10-24T11:34:57.980Z,98954.13
2022-10-24T11:37:35.400Z,98952.67
2022-10-24T11:40:13.040Z,98947.70
2022-10-24T11:42:59.394Z,98946.44
2022-10-24T11:45:48.590Z,98947.39
2022-10-24T11:48:42.477Z,98951.17
2022-10-24T11:51:24.523Z,98947.80
2022-10-24T11:54:04.166Z,98942.30
2022-10-24T11:56:51.270Z,98941.15
2022-10-24T11:59:24.813Z,98940.95
2022-10-24T12:02:09.274Z,98945.98
2022-10-24T12:05:04.855Z,98947.08
2022-10-24T12:08:10.217Z,98949.30
2022-10-24T12:11:06.052Z,98949.86
2022-10-24T12:14:13.288Z,98946.70
2022-10-24T12:17:13.472Z,98944.34
2022-10-24T12:19:44.922Z,98936.47
2022-10-24T12:22:28.486Z,98935.48
2022-10-24T12:25:33.474Z,98930.14
2022-10-24T12:28:09.636Z,98914.89
2022-10-24T12:30:37.422Z,98907.52
2022-10-24T12:33:25.540Z,98899.43
2022-10-24T12:35:57.505Z,98896.35
2022-10-24T12:38:28.246Z,98893.77
2022-10-24T12:41:21.186Z,98891.37
2022-10-24T12:43:50.363Z,98891.27
2022-10-24T12:46:38.436Z,98886.99
2022-10-24T12:49:08.830Z,98881.60
2022-10-24T12:51:41.598Z,98889.68
2022-10-24T12:54:12.289Z,98893.39
2022-10-24T12:56:50.202Z,98902.99
2022-10-24T12:59:27.454Z,98898.99
2022-10-24T13:02:13.578Z,98901.80
2022-10-24T13:05:04.887Z,98904.45
2022-10-24T13:07:41.810Z,98911.45
2022-10-24T13:10:26.015Z,98913.59
2022-10-24T13:13:25.232Z,98912.81
2022-10-24T13:16:29.470Z,98913.05
2022-10-24T13:18:57.122Z,98914.67
2022-10-24T13:21:46.910Z,98919.88
2022-10-24T13:24:15.367Z,98919.45
2022-10-24T13:26:54.837Z,98920.30
2022-10-24T13:29:28.366Z,98917.71
2022-10-24T13:32:05.131Z,98918.13
2022-10-24T13:34:53.485Z,98907.83
2022-10-24T13:37:31.391Z,98913.04
2022-10-24T13:40:15.932Z,98920.95
2022-10-24T13:42:52.278Z,98917.95
2022-10-24T13:45:38.598Z,98915.05
2022-10-24T13:48:16.397Z,98912.65
2022-10-24T13:50:57.688Z,98903.61
2022-10-24T13:53:31.356Z,98902.25
2022-10-24T13:56:14.717Z,98894.42
2022-10-24T13:58:46.167Z,98893.91
2022-10-24T14:01:30.395Z,98891.63
2022-10-24T14:04:00.510Z,98888.27
2022-10-24T14:06:33.909Z,98894.40
2022-10-24T14:09:10.589Z,98900.16
2022-10-24T14:11:50.021Z,98903.73
2022-10-24T14:14:32.912Z,98898.27
2022-10-24T14:17:23.928Z,98900.13
2022-10-24T14:20:02.679Z,98900.23
2022-10-24T14:22:41.914Z,98896.15
2022-10-24T14:25:24.063Z,98890.73
2022-10-24T14:27:55.527Z,98886.77
2022-10-24T14:30:34.401Z,98885.48
2022-10-24T14:33:09.022Z,98895.27
2022-10-24T14:35:36.792Z,98896.58
2022-10-24T14:38:14.860Z,98894.30
2022-10-24T14:40:53.872Z,98894.67
2022-10-24T14:43:31.440Z,98893.00
2022-10-24T14:46:08.908Z,98890.11
2022-10-24T14:48:39.473Z,98888.17
2022-10-24T14:51:39.421Z,98890.02
2022-10-24T14:54:35.769Z,98887.48
2022-10-24T14:57:17.242Z,98891.61
2022-10-24T14:59:50.820Z,98895.16
2022-10-24T15:02:43.294Z,98896.44
2022-10-24T15:05:19.340Z,98890.23
2022-10-24T15:08:09.399Z,98891.10
2022-10-24T15:10:42.257Z,98891.71
2022-10-24T15:13:16.218Z,98894.69
2022-10-24T15:15:43.852Z,98894.45
2022-10-24T15:18:29.910Z,98902.94
2022-10-24T15:21:08.020Z,98901.83
2022-10-24T15:23:46.152Z,98907.15
2022-10-24T15:26:23.881Z,98908.51
2022-10-24T15:28:57.583Z,98903.13
2022-10-24T15:31:28.873Z,98900.16
2022-10-24T15:33:56.698Z,98893.99
2022-10-24T15:36:31.375Z,98894.97
2022-10-24T15:39:16.695Z,98901.59
2022-10-24T15:41:44.393Z,98906.70
2022-10-24T15:44:33.397Z,98908.23
2022-10-24T15:47:02.434Z,98912.11
2022-10-24T15:49:32.577Z,98914.98
2022-10-24T15:52:01.431Z,98918.25
2022-10-24T15:54:29.414Z,98917.46
2022-10-24T15:56:59.462Z,98920.89
2022-10-24T15:59:29.568Z,98926.67
2022-10-24T16:02:03.316Z,98922.36
2022-10-24T16:04:34.072Z,98921.60
2022-10-24T16:07:03.507Z,98920.48
2022-10-24T16:09:32.929Z,98917.77
2022-10-24T16:12:00.615Z,98922.27
2022-10-24T16:14:30.820Z,98917.56
2022-10-24T16:16:58.909Z,98920.10
2022-10-24T16:19:28.098Z,98922.83
2022-10-24T16:21:58.611Z,98919.89
2022-10-24T16:24:29.256Z,98915.72
2022-10-24T16:26:57.229Z,98914.94
2022-10-24T16:29:24.960Z,98916.05
2022-10-24T16:31:52.742Z,98917.25
2022-10-24T16:34:21.601Z,98918.17
2022-10-24T16:36:55.015Z,98923.02
2022-10-24T16:39:24.986Z,98928.73
2022-10-24T16:41:55.229Z,98925.38
2022-10-24T16:44:24.618Z,98923.45
2022-10-24T16:46:54.240Z,98919.33
2022-10-24T16:49:24.771Z,98917.31
2022-10-24T16:51:52.503Z,98915.68
2022-10-24T16:54:22.965Z,98915.27
2022-10-24T16:56:54.068Z,98918.23
2022-10-24T16:59:22.207Z,98920.13
2022-10-24T17:01:50.530Z,98926.46
2022-10-24T17:04:19.383Z,98924.41
2022-10-24T17:06:47.288Z,98927.66
2022-10-24T17:09:16.282Z,98929.15
2022-10-24T17:11:46.904Z,98924.84
2022-10-24T17:14:14.826Z,98922.66
2022-10-24T17:16:46.080Z,98921.34
2022-10-24T17:19:16.559Z,98921.63
2022-10-24T17:21:50.385Z,98921.26
2022-10-24T17:24:24.510Z,98919.23
2022-10-24T17:26:54.134Z,98921.31
2022-10-24T17:29:32.866Z,98921.61
2022-10-24T17:32:00.816Z,98926.14
2022-10-24T17:34:30.082Z,98927.27
2022-10-24T17:37:16.339Z,98928.20
2022-10-24T17:40:01.697Z,98927.83
2022-10-24T17:42:30.884Z,98920.09
2022-10-24T17:44:58.739Z,98916.83
2022-10-24T17:47:30.363Z,98914.52
2022-10-24T17:49:58.000Z,98919.55
2022-10-24T17:52:25.682Z,98925.09
2022-10-24T17:54:53.347Z,98924.95
2022-10-24T17:57:21.079Z,98922.31
2022-10-24T17:59:48.773Z,98921.27
2022-10-24T18:02:16.760Z,98919.70
2022-10-24T18:04:46.566Z,98922.23
2022-10-24T18:07:16.155Z,98920.33
2022-10-24T18:09:43.829Z,98919.11
2022-10-24T18:12:14.247Z,98919.24
2022-10-24T18:14:42.058Z,98919.98
2022-10-24T18:17:09.755Z,98922.60
2022-10-24T18:19:37.428Z,98922.39
2022-10-24T18:22:05.162Z,98925.73
2022-10-24T18:24:37.936Z,98929.70
2022-10-24T18:27:05.574Z,98927.88
2022-10-24T18:29:34.445Z,98922.55
2022-10-24T18:32:04.316Z,98917.02
2022-10-24T18:34:32.187Z,98912.52
2022-10-24T18:36:59.817Z,98914.77
2022-10-24T18:39:30.168Z,98916.98
2022-10-24T18:42:20.886Z,98905.59
2022-10-24T18:44:51.038Z,98901.95
2022-10-24T18:47:24.815Z,98901.92
2022-10-24T18:49:55.441Z,98896.05
2022-10-24T18:52:32.994Z,98890.79
2022-10-24T18:55:18.357Z,98886.85
2022-10-24T18:57:50.031Z,98893.44
2022-10-24T19:00:22.181Z,98890.25
2022-10-24T19:02:59.597Z,98893.29
2022-10-24T19:05:40.355Z,98894.23
2022-10-24T19:08:24.390Z,98895.71
2022-10-24T19:10:55.903Z,98894.19
2022-10-24T19:13:27.976Z,98887.13
2022-10-24T19:16:00.254Z,98881.21
2022-10-24T19:18:31.804Z,98889.14
2022-10-24T19:21:01.482Z,98895.58
2022-10-24T19:23:29.151Z,98894.60
2022-10-24T19:25:58.751Z,98893.27
2022-10-24T19:28:26.451Z,98890.34
2022-10-24T19:30:54.175Z,98889.89
2022-10-24T19:33:27.979Z,98889.45
2022-10-24T19:35:56.162Z,98889.15
2022-10-24T19:38:24.780Z,98888.50
2022-10-24T19:40:55.200Z,98885.42
2022-10-24T19:43:29.258Z,98885.20
2022-10-24T19:48:46.115Z,98881.38
2022-10-24T19:51:13.814Z,98882.67
2022-10-24T19:53:43.366Z,98882.77
2022-10-24T19:56:27.319Z,98879.81
2022-10-24T19:58:56.194Z,98875.13
2022-10-24T20:01:29.660Z,98873.06
2022-10-24T20:04:01.403Z,98874.41
2022-10-24T20:06:31.881Z,98872.16
2022-10-24T20:08:59.621Z,98878.42
2022-10-24T20:11:27.465Z,98877.29
2022-10-24T20:13:55.218Z,98880.92
2022-10-24T20:16:22.919Z,98880.30
2022-10-24T20:18:51.904Z,98878.35
2022-10-24T20:21:19.619Z,98877.02
2022-10-24T20:23:49.101Z,98882.11
2022-10-24T20:26:25.967Z,98881.67
2022-10-24T20:28:56.034Z,98883.19
2022-10-24T20:31:39.223Z,98878.57
2022-10-24T20:34:10.986Z,98876.02
2022-10-24T20:36:43.975Z,98876.84
2022-10-24T20:39:16.298Z,98879.90
2022-10-24T20:41:45.535Z,98879.41
2022-10-24T20:44:16.779Z,98873.70
2022-10-24T20:46:45.913Z,98866.23
2022-10-24T20:49:14.804Z,98867.68
2022-10-24T20:51:44.431Z,98871.56
2022-10-24T20:54:12.242Z,98873.50
2022-10-24T20:56:42.629Z,98872.03
2022-10-24T20:59:14.560Z,98877.84
2022-10-24T21:01:43.465Z,98883.32
2022-10-24T21:04:13.673Z,98879.02
2022-10-24T21:06:44.561Z,98877.88
2022-10-24T21:09:14.803Z,98878.29
2022-10-24T21:11:42.486Z,98869.14
2022-10-24T21:14:15.452Z,98865.64
2022-10-24T21:16:43.151Z,98861.66
2022-10-24T21:19:13.052Z,98863.65
2022-10-24T21:21:43.200Z,98863.51
2022-10-24T21:24:15.317Z,98859.11
2022-10-24T21:26:43.089Z,98856.13
2022-10-24T21:29:33.400Z,98849.45
2022-10-24T21:32:01.277Z,98849.05
2022-10-24T21:34:31.728Z,98852.33
2022-10-24T21:37:04.879Z,98845.59
2022-10-24T21:39:32.632Z,98847.39
2022-10-24T21:42:00.662Z,98846.42
2022-10-24T21:44:29.910Z,98845.08
2022-10-24T21:46:57.720Z,98839.61
2022-10-24T21:49:26.129Z,98839.76
2022-10-24T21:51:55.382Z,98842.80
2022-10-24T21:54:26.963Z,98842.20
2022-10-24T21:56:54.686Z,98836.65
2022-10-24T21:59:24.242Z,98836.77
2022-10-24T22:01:54.056Z,98834.40
2022-10-24T22:04:23.289Z,98832.44
2022-10-24T22:06:50.994Z,98830.47
2022-10-24T22:09:23.887Z,98840.70
2022-10-24T22:11:59.224Z,98846.13
2022-10-24T22:14:26.920Z,98849.54
2022-10-24T22:16:54.613Z,98850.77
2022-10-24T22:19:24.633Z,98852.27
2022-10-24T22:21:53.396Z,98854.59
2022-10-24T22:24:24.459Z,98854.67
2022-10-24T22:26:53.945Z,98850.84
2022-10-24T22:29:24.917Z,98851.45
2022-10-24T22:31:54.338Z,98852.06
2022-10-24T22:34:25.409Z,98852.80
2022-10-24T22:37:05.556Z,98858.17
2022-10-24T22:39:33.535Z,98858.93
2022-10-24T22:42:01.415Z,98862.54
2022-10-24T22:44:29.339Z,98864.98
2022-10-24T22:47:17.590Z,98860.27
2022-10-24T22:50:22.948Z,98861.20
2022-10-24T22:52:50.959Z,98862.33
2022-10-24T22:55:28.015Z,98862.98
2022-10-24T22:57:55.953Z,98861.79
2022-10-24T23:00:24.616Z,98862.38
2022-10-24T23:03:04.797Z,98861.17
2022-10-24T23:05:43.101Z,98860.71
2022-10-24T23:08:30.147Z,98865.86
2022-10-24T23:10:58.165Z,98870.00
2022-10-24T23:13:26.272Z,98867.91
2022-10-24T23:16:00.747Z,98861.83
2022-10-24T23:18:28.691Z,98855.08
2022-10-24T23:21:24.934Z,98854.31
2022-10-24T23:23:52.944Z,98863.17
2022-10-24T23:26:40.573Z,98866.25
2022-10-24T23:29:31.606Z,98869.84
2022-10-24T23:32:02.962Z,98867.14
2022-10-24T23:34:32.066Z,98867.25
2022-10-24T23:37:03.941Z,98870.38
2022-10-24T23:39:35.594Z,98864.80
2022-10-24T23:42:05.486Z,98859.44
2022-10-24T23:44:33.522Z,98854.01
2022-10-24T23:47:33.162Z,98852.25
2022-10-24T23:50:15.855Z,98853.77
2022-10-24T23:53:12.874Z,98855.73
2022-10-24T23:55:40.725Z,98852.64
2022-10-24T23:58:13.392Z,98845.09
